createdAt,value
2022-12-11T00:01:11.771Z,65.56
2022-12-11T00:03:40.389Z,65.28
2022-12-11T00:06:09.298Z,64.86
2022-12-11T00:08:37.857Z,64.93
2022-12-11T00:11:09.697Z,65.53
2022-12-11T00:13:37.887Z,65.06
2022-12-11T00:16:07.844Z,65.14
2022-12-11T00:18:35.979Z,64.84
2022-12-11T00:21:04.659Z,64.65
2022-12-11T00:23:33.519Z,64.66
2022-12-11T00:26:01.389Z,65.51
2022-12-11T00:28:31.140Z,64.62
2022-12-11T00:30:58.991Z,65.08
2022-12-11T00:33:29.139Z,65.12
2022-12-11T00:35:56.899Z,64.74
2022-12-11T00:38:25.120Z,65.28
2022-12-11T00:40:53.037Z,64.41
2022-12-11T00:43:21.904Z,64.83
2022-12-11T00:45:54.883Z,64.58
2022-12-11T00:48:22.723Z,65.17
2022-12-11T00:50:50.892Z,64.60
2022-12-11T00:53:18.867Z,64.75
2022-12-11T00:55:46.607Z,65.14
2022-12-11T00:58:15.774Z,64.94
2022-12-11T01:00:45.196Z,64.49
2022-12-11T01:03:16.711Z,65.31
2022-12-11T01:05:52.846Z,64.85
2022-12-11T01:08:21.174Z,64.43
2022-12-11T01:10:48.307Z,64.55
2022-12-11T01:13:16.243Z,64.87
2022-12-11T01:15:46.907Z,64.99
2022-12-11T01:18:16.629Z,64.73
2022-12-11T01:20:44.958Z,65.33
2022-12-11T01:23:18.830Z,64.99
2022-12-11T01:25:47.293Z,65.13
2022-12-11T01:28:15.169Z,65.11
2022-12-11T01:30:44.098Z,65.01
2022-12-11T01:33:12.808Z,65.09
2022-12-11T01:35:42.402Z,64.69
2022-12-11T01:38:11.383Z,65.02
2022-12-11T01:40:39.253Z,65.52
2022-12-11T01:43:07.168Z,65.40
2022-12-11T01:45:42.215Z,64.66
2022-12-11T01:48:13.657Z,64.79
2022-12-11T01:50:49.133Z,64.76
2022-12-11T01:53:22.121Z,65.00
2022-12-11T01:55:54.180Z,65.31
2022-12-11T01:58:24.738Z,64.56
2022-12-11T02:00:54.430Z,64.86
2022-12-11T02:03:23.013Z,65.09
2022-12-11T02:05:52.552Z,64.38
2022-12-11T02:08:21.025Z,64.90
2022-12-11T02:11:03.427Z,65.10
2022-12-11T02:13:37.680Z,64.18
2022-12-11T02:16:13.178Z,64.46
2022-12-11T02:18:47.398Z,64.88
2022-12-11T02:21:23.315Z,64.29
2022-12-11T02:24:24.609Z,64.01
2022-12-11T02:27:12.609Z,64.47
2022-12-11T02:29:49.765Z,64.19
2022-12-11T02:32:21.684Z,64.80
2022-12-11T02:34:57.793Z,64.06
2022-12-11T02:37:30.565Z,64.48
2022-12-11T02:39:59.036Z,64.38
2022-12-11T02:42:31.357Z,64.08
2022-12-11T02:45:03.418Z,64.09
2022-12-11T02:47:32.399Z,63.93
2022-12-11T02:50:03.668Z,64.55
2022-12-11T02:52:34.365Z,64.14
2022-12-11T02:55:04.541Z,64.19
2022-12-11T02:57:39.813Z,64.03
2022-12-11T03:00:10.158Z,64.03
2022-12-11T03:02:38.730Z,63.59
2022-12-11T03:05:07.203Z,63.91
2022-12-11T03:07:39.621Z,64.66
2022-12-11T03:10:10.429Z,64.25
2022-12-11T03:12:42.335Z,63.86
2022-12-11T03:15:15.662Z,63.82
2022-12-11T03:17:58.547Z,64.51
2022-12-11T03:20:36.476Z,64.29
2022-12-11T03:23:14.119Z,64.17
2022-12-11T03:25:47.965Z,63.80
2022-12-11T03:28:19.837Z,64.32
2022-12-11T03:30:52.798Z,64.33
2022-12-11T03:33:26.021Z,64.14
2022-12-11T03:35:57.376Z,63.56
2022-12-11T03:38:32.425Z,64.46
2022-12-11T03:41:03.377Z,64.17
2022-12-11T03:43:33.059Z,63.78
2022-12-11T03:46:02.722Z,64.05
2022-12-11T03:48:36.921Z,63.87
2022-12-11T03:51:08.052Z,64.47
2022-12-11T03:53:38.112Z,63.63
2022-12-11T03:56:08.480Z,64.28
2022-12-11T03:58:36.591Z,63.80
2022-12-11T04:01:10.618Z,63.99
2022-12-11T04:03:39.094Z,64.08
2022-12-11T04:06:07.417Z,63.77
2022-12-11T04:08:35.698Z,63.99
2022-12-11T04:11:21.677Z,64.58
2022-12-11T04:14:11.936Z,64.69
2022-12-11T04:16:40.167Z,64.03
2022-12-11T04:19:25.737Z,64.04
2022-12-11T04:22:10.976Z,64.47
2022-12-11T04:24:39.778Z,64.22
2022-12-11T04:27:07.957Z,64.03
2022-12-11T04:29:36.144Z,64.40
2022-12-11T04:32:05.618Z,63.97
2022-12-11T04:34:33.432Z,64.72
2022-12-11T04:37:01.628Z,64.40
2022-12-11T04:39:29.416Z,64.52
2022-12-11T04:41:57.721Z,64.42
2022-12-11T04:44:25.495Z,64.39
2022-12-11T04:46:53.549Z,64.28
2022-12-11T04:49:22.833Z,64.13
2022-12-11T04:51:51.301Z,63.79
2022-12-11T04:54:19.066Z,64.23
2022-12-11T04:56:49.494Z,64.33
2022-12-11T04:59:17.426Z,64.39
2022-12-11T05:01:45.660Z,64.22
2022-12-11T05:04:17.141Z,64.37
2022-12-11T05:06:47.042Z,64.40
2022-12-11T05:09:15.490Z,64.40
2022-12-11T05:11:43.918Z,64.26
2022-12-11T05:14:11.760Z,63.79
2022-12-11T05:16:39.935Z,63.78
2022-12-11T05:19:07.766Z,64.07
2022-12-11T05:21:36.058Z,64.22
2022-12-11T05:24:05.772Z,64.61
2022-12-11T05:26:34.072Z,64.70
2022-12-11T05:29:01.897Z,63.69
2022-12-11T05:31:30.064Z,64.32
2022-12-11T05:33:58.389Z,64.18
2022-12-11T05:36:28.601Z,64.00
2022-12-11T05:38:57.654Z,63.88
2022-12-11T05:41:30.704Z,64.08
2022-12-11T05:43:58.702Z,63.91
2022-12-11T05:46:28.367Z,64.00
2022-12-11T05:48:58.317Z,63.36
2022-12-11T05:51:27.081Z,64.26
2022-12-11T05:53:56.973Z,63.28
2022-12-11T05:56:27.659Z,64.04
2022-12-11T05:58:57.008Z,63.99
2022-12-11T06:01:27.522Z,63.73
2022-12-11T06:03:57.071Z,63.14
2022-12-11T06:06:25.768Z,63.55
2022-12-11T06:08:54.867Z,64.02
2022-12-11T06:11:24.388Z,63.65
2022-12-11T06:13:54.726Z,63.95
2022-12-11T06:16:23.125Z,64.11
2022-12-11T06:18:52.278Z,63.55
2022-12-11T06:21:23.769Z,64.09
2022-12-11T06:23:53.544Z,63.58
2022-12-11T06:26:22.019Z,63.69
2022-12-11T06:28:51.180Z,63.05
2022-12-11T06:31:20.853Z,63.62
2022-12-11T06:33:49.537Z,63.44
2022-12-11T06:36:19.721Z,63.01
2022-12-11T06:38:48.969Z,63.43
2022-12-11T06:41:17.357Z,63.25
2022-12-11T06:43:45.619Z,63.72
2022-12-11T06:46:15.352Z,64.03
2022-12-11T06:48:46.284Z,63.94
2022-12-11T06:51:15.872Z,64.23
2022-12-11T06:53:44.738Z,63.65
2022-12-11T06:56:15.747Z,64.00
2022-12-11T06:58:45.385Z,63.87
2022-12-11T07:01:19.053Z,63.26
2022-12-11T07:03:49.420Z,63.83
2022-12-11T07:06:17.548Z,63.84
2022-12-11T07:08:45.525Z,63.77
2022-12-11T07:11:15.934Z,63.65
2022-12-11T07:13:44.192Z,63.39
2022-12-11T07:16:14.532Z,63.68
2022-12-11T07:18:44.349Z,63.13
2022-12-11T07:21:15.449Z,62.99
2022-12-11T07:23:43.805Z,63.63
2022-12-11T07:26:14.558Z,63.23
2022-12-11T07:28:43.951Z,63.90
2022-12-11T07:31:15.710Z,63.24
2022-12-11T07:33:44.260Z,63.41
2022-12-11T07:36:15.098Z,62.85
2022-12-11T07:38:43.405Z,62.87
2022-12-11T07:41:15.774Z,62.51
2022-12-11T07:43:44.349Z,62.57
2022-12-11T07:46:14.456Z,63.68
2022-12-11T07:48:44.531Z,63.44
2022-12-11T07:51:16.288Z,62.75
2022-12-11T07:53:45.518Z,63.20
2022-12-11T07:56:13.532Z,63.08
2022-12-11T07:58:41.307Z,62.53
2022-12-11T08:01:13.631Z,62.92
2022-12-11T08:03:42.134Z,62.84
2022-12-11T08:06:11.069Z,63.04
2022-12-11T08:08:41.539Z,62.96
2022-12-11T08:11:12.058Z,63.20
2022-12-11T08:13:40.793Z,63.22
2022-12-11T08:16:11.491Z,62.62
2022-12-11T08:18:40.247Z,61.97
2022-12-11T08:21:08.602Z,61.98
2022-12-11T08:23:36.927Z,62.60
2022-12-11T08:26:08.559Z,62.44
2022-12-11T08:28:37.599Z,62.19
2022-12-11T08:31:06.171Z,62.53
2022-12-11T08:33:34.536Z,62.38
2022-12-11T08:36:03.958Z,62.89
2022-12-11T08:38:32.298Z,62.79
2022-12-11T08:41:00.438Z,62.41
2022-12-11T08:43:30.986Z,62.82
2022-12-11T08:45:58.702Z,62.12
2022-12-11T08:48:26.617Z,62.47
2022-12-11T08:50:54.816Z,61.70
2022-12-11T08:53:22.521Z,61.93
2022-12-11T08:55:50.575Z,61.73
2022-12-11T08:58:18.278Z,61.80
2022-12-11T09:00:47.612Z,61.71
2022-12-11T09:03:15.525Z,61.75
2022-12-11T09:05:43.386Z,62.18
2022-12-11T09:08:11.725Z,61.89
2022-12-11T09:10:39.900Z,61.27
2022-12-11T09:13:08.143Z,61.29
2022-12-11T09:15:36.321Z,61.08
2022-12-11T09:18:05.673Z,61.19
2022-12-11T09:20:34.456Z,62.26
2022-12-11T09:23:02.674Z,62.14
2022-12-11T09:25:30.336Z,61.30
2022-12-11T09:27:58.001Z,62.25
2022-12-11T09:30:26.028Z,61.43
2022-12-11T09:32:54.451Z,61.63
2022-12-11T09:35:23.518Z,61.52
2022-12-11T09:37:51.378Z,62.27
2022-12-11T09:40:19.947Z,61.99
2022-12-11T09:42:55.863Z,61.57
2022-12-11T09:45:23.815Z,62.21
2022-12-11T09:47:56.196Z,61.25
2022-12-11T09:50:28.369Z,61.47
2022-12-11T09:53:09.347Z,61.35
2022-12-11T09:55:52.398Z,61.49
2022-12-11T09:58:26.150Z,61.35
2022-12-11T10:01:01.687Z,60.40
2022-12-11T10:03:47.974Z,61.43
2022-12-11T10:06:26.286Z,61.72
2022-12-11T10:09:04.955Z,61.54
2022-12-11T10:11:48.284Z,61.51
2022-12-11T10:14:27.250Z,61.42
2022-12-11T10:17:01.295Z,61.02
2022-12-11T10:19:32.028Z,60.31
2022-12-11T10:37:07.639Z,60.29
2022-12-11T10:39:35.551Z,60.87
2022-12-11T10:42:17.445Z,60.57
2022-12-11T10:44:57.766Z,61.20
2022-12-11T10:47:25.880Z,61.22
2022-12-11T10:49:58.618Z,60.17
2022-12-11T10:52:28.773Z,60.98
2022-12-11T10:55:00.834Z,61.60
2022-12-11T10:57:30.694Z,61.22
2022-12-11T11:00:01.039Z,61.14
2022-12-11T11:02:33.366Z,60.13
2022-12-11T11:05:14.636Z,60.47
2022-12-11T11:07:42.513Z,59.95
2022-12-11T11:10:18.282Z,60.64
2022-12-11T11:12:48.230Z,60.94
2022-12-11T11:15:20.047Z,60.68
2022-12-11T11:17:55.089Z,59.33
2022-12-11T11:20:28.138Z,59.26
2022-12-11T11:22:58.645Z,59.86
2022-12-11T11:25:29.388Z,59.08
2022-12-11T11:27:59.020Z,58.72
2022-12-11T11:30:28.237Z,59.03
2022-12-11T11:32:57.823Z,59.25
2022-12-11T11:35:28.669Z,59.37
2022-12-11T11:38:04.140Z,58.12
2022-12-11T11:40:37.146Z,58.79
2022-12-11T11:43:17.905Z,58.50
2022-12-11T11:45:52.622Z,58.16
2022-12-11T11:48:41.124Z,58.63
2022-12-11T11:51:17.021Z,57.76
2022-12-11T11:53:49.369Z,57.89
2022-12-11T11:56:28.681Z,58.12
2022-12-11T11:59:07.255Z,57.98
2022-12-11T12:01:35.134Z,57.71
2022-12-11T12:04:04.713Z,58.25
2022-12-11T12:07:09.039Z,58.07
2022-12-11T12:09:50.739Z,57.81
2022-12-11T12:12:34.118Z,57.65
2022-12-11T12:15:14.909Z,57.77
2022-12-11T12:17:55.695Z,57.31
2022-12-11T12:20:38.684Z,58.25
2022-12-11T12:23:27.398Z,58.12
2022-12-11T12:26:05.581Z,58.32
2022-12-11T12:28:40.281Z,57.24
2022-12-11T12:31:26.659Z,57.60
2022-12-11T12:34:03.736Z,57.69
2022-12-11T12:36:40.453Z,58.38
2022-12-11T12:39:23.034Z,58.74
2022-12-11T12:42:01.372Z,57.86
2022-12-11T12:44:42.922Z,58.17
2022-12-11T12:47:14.769Z,58.27
2022-12-11T12:49:44.537Z,58.88
2022-12-11T12:52:17.606Z,57.76
2022-12-11T12:55:03.590Z,58.88
2022-12-11T12:57:32.456Z,59.11
2022-12-11T13:00:00.346Z,58.47
2022-12-11T13:02:28.519Z,58.85
2022-12-11T13:04:59.619Z,58.87
2022-12-11T13:07:30.864Z,58.91
2022-12-11T13:10:07.419Z,58.58
2022-12-11T13:12:44.205Z,59.04
2022-12-11T13:15:35.329Z,59.41
2022-12-11T13:18:26.296Z,59.38
2022-12-11T13:20:54.994Z,59.06
2022-12-11T13:23:29.382Z,58.84
2022-12-11T13:26:01.471Z,58.93
2022-12-11T13:28:46.603Z,60.06
2022-12-11T13:31:31.912Z,59.82
2022-12-11T13:34:09.864Z,59.90
2022-12-11T13:36:40.468Z,59.73
2022-12-11T13:39:18.292Z,59.56
2022-12-11T13:41:53.683Z,59.78
2022-12-11T13:44:25.728Z,59.74
2022-12-11T13:46:55.879Z,59.19
2022-12-11T13:49:26.551Z,59.23
2022-12-11T13:51:57.454Z,59.69
2022-12-11T13:54:26.579Z,59.78
2022-12-11T13:57:05.502Z,60.20
2022-12-11T13:59:36.825Z,60.30
2022-12-11T14:02:11.936Z,59.22
2022-12-11T14:04:41.217Z,60.31
2022-12-11T14:07:12.031Z,60.45
2022-12-11T14:09:44.491Z,59.66
2022-12-11T14:12:19.509Z,60.24
2022-12-11T14:14:50.839Z,60.14
2022-12-11T14:17:25.021Z,59.85
2022-12-11T14:19:53.588Z,59.72
2022-12-11T14:22:23.621Z,59.57
2022-12-11T14:24:52.549Z,59.62
2022-12-11T14:27:22.416Z,60.38
2022-12-11T14:29:52.292Z,60.36
2022-12-11T14:32:29.127Z,60.33
2022-12-11T14:34:57.443Z,60.29
2022-12-11T14:37:28.540Z,60.21
2022-12-11T14:40:01.274Z,60.19
2022-12-11T14:42:34.936Z,60.18
2022-12-11T14:45:09.394Z,60.41
2022-12-11T14:47:42.096Z,60.20
2022-12-11T14:50:18.956Z,60.12
2022-12-11T14:52:50.160Z,60.20
2022-12-11T14:55:24.013Z,60.85
2022-12-11T14:57:57.800Z,60.71
2022-12-11T15:00:28.455Z,60.50
2022-12-11T15:03:01.535Z,60.36
2022-12-11T15:05:34.461Z,60.91
2022-12-11T15:08:24.383Z,60.78
2022-12-11T15:11:03.608Z,60.58
2022-12-11T15:13:34.263Z,61.36
2022-12-11T15:16:03.988Z,60.74
2022-12-11T15:18:35.001Z,60.62
2022-12-11T15:21:07.400Z,60.98
2022-12-11T15:23:41.323Z,61.64
2022-12-11T15:26:09.038Z,61.12
2022-12-11T15:28:40.052Z,60.87
2022-12-11T15:31:24.076Z,60.41
2022-12-11T15:33:51.799Z,60.57
2022-12-11T15:36:26.803Z,61.07
2022-12-11T15:38:54.740Z,60.58
2022-12-11T15:41:24.601Z,60.50
2022-12-11T15:43:58.950Z,60.73
2022-12-11T15:46:27.620Z,61.18
2022-12-11T15:48:58.402Z,60.91
2022-12-11T15:51:27.586Z,60.55
2022-12-11T15:53:55.555Z,60.19
2022-12-11T15:56:23.520Z,60.32
2022-12-11T15:58:51.402Z,60.33
2022-12-11T16:01:21.458Z,60.05
2022-12-11T16:03:50.422Z,59.83
2022-12-11T16:06:18.816Z,60.32
2022-12-11T16:08:46.749Z,61.10
2022-12-11T16:11:15.258Z,60.08
2022-12-11T16:13:43.633Z,59.49
2022-12-11T16:16:11.751Z,59.63
2022-12-11T16:18:41.200Z,60.50
2022-12-11T16:21:09.115Z,59.84
2022-12-11T16:23:37.078Z,59.61
2022-12-11T16:26:10.116Z,59.57
2022-12-11T16:28:38.032Z,59.95
2022-12-11T16:31:11.871Z,59.79
2022-12-11T16:33:41.623Z,59.66
2022-12-11T16:36:16.857Z,59.91
2022-12-11T16:38:51.361Z,60.50
2022-12-11T16:41:21.091Z,59.66
2022-12-11T16:43:48.974Z,60.00
2022-12-11T16:46:18.946Z,59.74
2022-12-11T16:48:48.656Z,60.73
2022-12-11T16:51:17.070Z,60.38
2022-12-11T16:53:45.096Z,60.40
2022-12-11T16:56:13.654Z,60.27
2022-12-11T16:58:43.008Z,59.60
2022-12-11T17:01:12.253Z,60.55
2022-12-11T17:03:41.092Z,59.72
2022-12-11T17:06:12.325Z,59.24
2022-12-11T17:08:43.105Z,59.47
2022-12-11T17:11:14.186Z,59.28
2022-12-11T17:13:42.722Z,59.47
2022-12-11T17:16:13.824Z,59.84
2022-12-11T17:18:42.185Z,59.27
2022-12-11T17:21:15.774Z,59.33
2022-12-11T17:23:44.781Z,59.35
2022-12-11T17:26:14.985Z,58.96
2022-12-11T17:28:43.492Z,59.82
2022-12-11T17:31:15.355Z,60.04
2022-12-11T17:33:44.623Z,59.78
2022-12-11T17:36:16.577Z,59.27
2022-12-11T17:38:45.094Z,59.57
2022-12-11T17:41:20.328Z,59.59
2022-12-11T17:43:49.989Z,60.02
2022-12-11T17:46:18.792Z,59.38
2022-12-11T17:48:47.009Z,59.49
2022-12-11T17:51:22.401Z,60.03
2022-12-11T17:53:50.718Z,59.98
2022-12-11T17:56:18.674Z,59.84
2022-12-11T17:58:47.324Z,59.47
2022-12-11T18:01:15.533Z,59.30
2022-12-11T18:03:43.978Z,59.60
2022-12-11T18:06:15.156Z,59.43
2022-12-11T18:08:46.579Z,59.89
2022-12-11T18:11:16.415Z,59.50
2022-12-11T18:13:47.034Z,59.92
2022-12-11T18:16:18.224Z,59.70
2022-12-11T18:18:47.424Z,59.51
2022-12-11T18:21:16.902Z,59.76
2022-12-11T18:23:47.427Z,59.99
2022-12-11T18:26:15.941Z,59.60
2022-12-11T18:28:44.694Z,59.57
2022-12-11T18:31:14.430Z,59.64
2022-12-11T18:33:45.146Z,59.31
2022-12-11T18:36:14.863Z,60.54
2022-12-11T18:38:44.472Z,60.31
2022-12-11T18:41:17.919Z,60.64
2022-12-11T18:43:48.358Z,59.78
2022-12-11T18:46:19.882Z,60.00
2022-12-11T18:48:49.062Z,59.99
2022-12-11T18:51:19.575Z,59.93
2022-12-11T18:53:47.778Z,59.90
2022-12-11T18:56:20.271Z,59.67
2022-12-11T18:58:49.173Z,59.80
2022-12-11T19:01:20.509Z,60.03
2022-12-11T19:03:49.191Z,60.29
2022-12-11T19:06:19.753Z,60.49
2022-12-11T19:08:48.386Z,59.59
2022-12-11T19:11:20.404Z,60.12
2022-12-11T19:13:49.497Z,60.22
2022-12-11T19:16:19.440Z,59.76
2022-12-11T19:18:48.519Z,59.87
2022-12-11T19:21:18.883Z,59.61
2022-12-11T19:23:48.296Z,60.29
2022-12-11T19:26:20.208Z,59.92
2022-12-11T19:28:50.779Z,59.82
2022-12-11T19:31:21.779Z,59.70
2022-12-11T19:33:50.330Z,59.73
2022-12-11T19:36:20.981Z,59.65
2022-12-11T19:38:50.234Z,59.78
2022-12-11T19:41:23.439Z,58.92
2022-12-11T19:43:52.297Z,59.36
2022-12-11T19:46:22.753Z,59.82
2022-12-11T19:48:52.503Z,59.49
2022-12-11T19:51:22.784Z,59.73
2022-12-11T19:53:51.268Z,59.55
2022-12-11T19:56:21.601Z,59.32
2022-12-11T19:58:53.595Z,59.70
2022-12-11T20:01:25.075Z,59.62
2022-12-11T20:03:57.752Z,59.12
2022-12-11T20:06:25.786Z,59.66
2022-12-11T20:08:53.819Z,60.00
2022-12-11T20:11:23.289Z,58.96
2022-12-11T20:13:51.634Z,59.66
2022-12-11T20:16:39.195Z,59.76
2022-12-11T20:19:08.721Z,59.27
2022-12-11T20:21:36.587Z,59.90
2022-12-11T20:24:04.798Z,59.45
2022-12-11T20:26:36.469Z,60.24
2022-12-11T20:29:07.406Z,59.47
2022-12-11T20:31:38.697Z,59.57
2022-12-11T20:34:07.405Z,59.67
2022-12-11T20:36:35.422Z,59.75
2022-12-11T20:39:03.511Z,59.18
2022-12-11T20:41:32.566Z,59.31
2022-12-11T20:44:02.671Z,59.39
2022-12-11T20:46:30.750Z,59.60
2022-12-11T20:49:00.675Z,59.69
2022-12-11T20:51:32.773Z,59.33
2022-12-11T20:54:01.505Z,59.45
2022-12-11T20:56:32.155Z,59.91
2022-12-11T20:59:02.516Z,60.16
2022-12-11T21:01:32.923Z,59.83
2022-12-11T21:04:01.129Z,59.70
2022-12-11T21:06:31.821Z,59.62
2022-12-11T21:09:00.869Z,60.06
2022-12-11T21:11:29.465Z,60.00
2022-12-11T21:13:57.325Z,60.11
2022-12-11T21:16:31.906Z,59.95
2022-12-11T21:19:00.417Z,59.44
2022-12-11T21:21:28.423Z,59.55
2022-12-11T21:23:56.491Z,59.81
2022-12-11T21:26:24.426Z,59.64
2022-12-11T21:28:53.291Z,59.52
2022-12-11T21:31:21.455Z,59.64
2022-12-11T21:33:50.904Z,59.68
2022-12-11T21:36:18.968Z,60.00
2022-12-11T21:38:47.687Z,59.65
2022-12-11T21:41:18.103Z,59.27
2022-12-11T21:45:21.228Z,59.79
2022-12-11T21:46:37.039Z,59.27
2022-12-11T21:49:08.336Z,59.83
2022-12-11T21:51:41.489Z,59.59
2022-12-11T21:54:15.552Z,59.24
2022-12-11T21:56:44.512Z,59.77
2022-12-11T21:59:12.435Z,59.61
2022-12-11T22:01:42.976Z,59.85
2022-12-11T22:04:13.568Z,59.19
2022-12-11T22:06:47.089Z,59.43
2022-12-11T22:09:15.496Z,59.06
2022-12-11T22:11:45.275Z,59.36
2022-12-11T22:14:14.313Z,59.98
2022-12-11T22:16:42.542Z,59.56
2022-12-11T22:19:11.336Z,59.48
2022-12-11T22:21:41.140Z,59.40
2022-12-11T22:24:09.420Z,59.68
2022-12-11T22:26:37.253Z,59.26
2022-12-11T22:29:05.177Z,59.70
2022-12-11T22:31:33.522Z,59.44
2022-12-11T22:34:01.476Z,59.43
2022-12-11T22:36:29.436Z,59.31
2022-12-11T22:39:00.929Z,59.27
2022-12-11T22:41:31.357Z,59.34
2022-12-11T22:44:00.559Z,58.85
2022-12-11T22:46:30.969Z,59.17
2022-12-11T22:49:04.587Z,59.08
2022-12-11T22:51:32.431Z,59.66
2022-12-11T22:54:01.934Z,59.18
2022-12-11T22:56:29.933Z,59.41
2022-12-11T22:58:58.369Z,58.83
2022-12-11T23:01:28.230Z,58.91
2022-12-11T23:03:59.071Z,59.11
2022-12-11T23:06:26.974Z,59.25
2022-12-11T23:08:59.263Z,58.87
2022-12-11T23:11:31.531Z,59.01
2022-12-11T23:13:59.616Z,58.78
2022-12-11T23:16:28.971Z,59.33
2022-12-11T23:18:58.113Z,58.91
2022-12-11T23:21:27.980Z,59.06
2022-12-11T23:23:56.268Z,59.29
2022-12-11T23:26:24.664Z,59.38
2022-12-11T23:28:55.082Z,59.11
2022-12-11T23:31:24.156Z,59.19
2022-12-11T23:33:52.136Z,59.28
2022-12-11T23:36:20.733Z,58.95
2022-12-11T23:38:54.309Z,58.96
2022-12-11T23:41:23.236Z,59.28
2022-12-11T23:43:51.199Z,59.79
2022-12-11T23:46:24.079Z,59.38
2022-12-11T23:48:53.646Z,59.35
2022-12-11T23:51:22.997Z,59.40
2022-12-11T23:53:51.314Z,58.99
2022-12-11T23:56:23.084Z,59.06
2022-12-11T23:58:52.263Z,58.86
